Time;durP1;ratioP1;P1;durP2;ratioP2;P2;SDS_P1;SDS_P2;PMS_P1;PMS_P2;Temp;Humidity;BMP_temperature;BMP_pressure;BME280_temperature;BME280_humidity;BME280_pressure;Samples;Min_cycle;Max_cycle;Signal;HPM_P1;HPM_P2
2022/06/23 00:00:47;;;;;;;;;;;19.20;38.80;;;;;;6216004;23;20335;-90
2022/06/23 00:03:23;;;;;;;;;;;19.10;38.90;;;;;;6214394;23;19931;-90
2022/06/23 00:05:52;;;;;;;;;;;19.00;38.80;;;;;;6214960;23;20333;-90
2022/06/23 00:08:18;;;;;;;;;;;18.90;38.90;;;;;;6215819;23;19983;-90
2022/06/23 00:10:47;;;;;;;;;;;18.90;38.90;;;;;;6214214;23;19916;-91
2022/06/23 00:13:32;;;;;;;;;;;18.80;39.10;;;;;;6214666;23;19922;-91
2022/06/23 00:15:57;;;;;;;;;;;18.80;39.10;;;;;;6214350;23;19911;-91
2022/06/23 00:18:30;;;;;;;;;;;18.70;39.10;;;;;;6215562;23;19946;-91
2022/06/23 00:20:58;;;;;;;;;;;18.70;39.20;;;;;;6216158;23;19956;-91
2022/06/23 00:23:24;;;;;;;;;;;18.60;39.30;;;;;;6217355;23;19954;-91
2022/06/23 00:25:53;;;;;;;;;;;18.60;39.40;;;;;;6217942;23;20340;-90
2022/06/23 00:28:22;;;;;;;;;;;18.50;39.50;;;;;;6216378;23;19904;-91
2022/06/23 00:30:50;;;;;;;;;;;18.50;39.60;;;;;;6215665;23;19947;-90
2022/06/23 00:33:20;;;;;;;;;;;18.40;39.70;;;;;;6217634;23;19910;-90
2022/06/23 00:35:46;;;;;;;;;;;18.40;39.90;;;;;;6216909;23;19919;-91
2022/06/23 00:38:26;;;;;;;;;;;18.40;40.50;;;;;;6216291;23;19904;-91
2022/06/23 00:40:52;;;;;;;;;;;18.30;40.60;;;;;;6222052;23;19956;-90
2022/06/23 00:43:17;;;;;;;;;;;18.30;40.70;;;;;;6219655;23;19987;-91
2022/06/23 00:46:04;;;;;;;;;;;18.30;40.80;;;;;;6217152;23;19954;-91
2022/06/23 00:48:35;;;;;;;;;;;18.20;40.90;;;;;;6217357;23;19995;-91
2022/06/23 00:51:10;;;;;;;;;;;18.20;40.90;;;;;;6219633;23;19920;-90
2022/06/23 00:53:45;;;;;;;;;;;18.00;40.80;;;;;;6217502;23;19950;-90
2022/06/23 00:56:26;;;;;;;;;;;18.00;40.80;;;;;;6218475;22;19919;-91
2022/06/23 00:58:55;;;;;;;;;;;18.00;40.80;;;;;;6217512;23;19970;-91
2022/06/23 01:01:24;;;;;;;;;;;17.90;40.90;;;;;;6217914;23;19912;-92
2022/06/23 01:04:00;;;;;;;;;;;17.80;41.10;;;;;;6218371;23;19911;-92
2022/06/23 01:06:39;;;;;;;;;;;17.80;41.10;;;;;;6218743;23;19908;-91
2022/06/23 01:09:31;;;;;;;;;;;17.80;41.10;;;;;;6217390;23;19927;-91
2022/06/23 01:12:03;;;;;;;;;;;17.70;41.20;;;;;;6218540;23;19964;-91
2022/06/23 01:14:52;;;;;;;;;;;17.70;41.40;;;;;;6216940;23;19939;-90
2022/06/23 01:17:24;;;;;;;;;;;17.60;41.40;;;;;;6216931;23;19915;-91
2022/06/23 01:20:13;;;;;;;;;;;17.50;41.90;;;;;;6216842;23;20210;-91
2022/06/23 01:23:10;;;;;;;;;;;17.50;42.00;;;;;;6198259;23;19912;-91
2022/06/23 01:25:42;;;;;;;;;;;17.40;42.00;;;;;;6187972;23;19908;-91
2022/06/23 01:28:16;;;;;;;;;;;17.40;42.40;;;;;;6218828;23;19986;-90
2022/06/23 01:30:44;;;;;;;;;;;17.40;42.40;;;;;;6217013;23;19995;-91
2022/06/23 01:33:21;;;;;;;;;;;17.30;42.40;;;;;;6218892;23;19908;-91
2022/06/23 01:35:55;;;;;;;;;;;17.30;42.70;;;;;;6217227;23;19908;-91
2022/06/23 01:38:30;;;;;;;;;;;17.30;43.40;;;;;;6219241;23;19912;-90
2022/06/23 01:40:58;;;;;;;;;;;17.20;44.30;;;;;;6216141;23;19930;-91
2022/06/23 01:43:44;;;;;;;;;;;17.10;44.30;;;;;;6218040;23;19908;-91
2022/06/23 01:46:36;;;;;;;;;;;17.20;43.90;;;;;;6217959;23;19904;-90
2022/06/23 01:49:04;;;;;;;;;;;17.10;43.70;;;;;;6212338;23;19918;-90
2022/06/23 01:51:39;;;;;;;;;;;17.00;43.50;;;;;;6217398;23;19922;-90
2022/06/23 01:54:12;;;;;;;;;;;17.00;43.60;;;;;;6217307;23;20284;-90
2022/06/23 01:57:14;;;;;;;;;;;17.00;44.90;;;;;;6216665;23;19908;-90
2022/06/23 01:59:45;;;;;;;;;;;17.00;46.90;;;;;;6073945;23;19913;-90
2022/06/23 02:02:11;;;;;;;;;;;17.00;46.10;;;;;;6190841;23;19904;-90
2022/06/23 02:04:59;;;;;;;;;;;17.00;45.90;;;;;;6217810;23;19908;-90
2022/06/23 02:07:29;;;;;;;;;;;17.00;45.60;;;;;;6148305;23;19920;-90
2022/06/23 02:10:00;;;;;;;;;;;17.00;45.50;;;;;;6217462;23;20009;-91
2022/06/23 02:12:34;;;;;;;;;;;17.00;45.70;;;;;;6218161;23;20284;-91
2022/06/23 02:15:13;;;;;;;;;;;17.00;45.50;;;;;;6218828;23;19914;-91
2022/06/23 02:17:40;;;;;;;;;;;17.00;45.20;;;;;;6219000;23;19908;-91
2022/06/23 02:20:26;;;;;;;;;;;16.80;45.20;;;;;;6218386;23;19912;-91
2022/06/23 02:23:13;;;;;;;;;;;16.80;45.10;;;;;;6140956;23;19912;-91
2022/06/23 02:25:44;;;;;;;;;;;16.80;45.20;;;;;;6192712;23;19907;-90
2022/06/23 02:28:12;;;;;;;;;;;16.70;45.10;;;;;;6219456;23;19912;-90
2022/06/23 02:30:42;;;;;;;;;;;16.70;45.10;;;;;;6217523;23;19924;-90
2022/06/23 02:33:30;;;;;;;;;;;16.70;45.30;;;;;;6215585;23;20336;-91
2022/06/23 02:35:55;;;;;;;;;;;16.60;45.60;;;;;;6215127;23;19908;-90
2022/06/23 02:38:41;;;;;;;;;;;16.60;45.60;;;;;;6215807;23;20371;-90
2022/06/23 02:41:18;;;;;;;;;;;16.60;45.50;;;;;;6214584;23;19908;-90
2022/06/23 02:43:52;;;;;;;;;;;16.50;45.50;;;;;;6215341;23;19912;-91
2022/06/23 02:46:37;;;;;;;;;;;16.50;45.40;;;;;;6216968;23;19936;-91
2022/06/23 02:49:02;;;;;;;;;;;16.50;45.50;;;;;;6215956;23;19899;-91
2022/06/23 02:51:46;;;;;;;;;;;16.40;45.50;;;;;;6216794;23;19916;-91
2022/06/23 02:54:15;;;;;;;;;;;16.40;45.60;;;;;;6217752;23;19908;-91
2022/06/23 02:56:59;;;;;;;;;;;16.30;45.60;;;;;;6216164;23;19994;-92
2022/06/23 02:59:44;;;;;;;;;;;16.30;45.80;;;;;;6216234;23;19950;-92
2022/06/23 03:02:38;;;;;;;;;;;16.30;46.50;;;;;;6216927;23;20420;-90
2022/06/23 03:05:04;;;;;;;;;;;16.30;46.90;;;;;;6152800;23;20236;-90
2022/06/23 03:07:39;;;;;;;;;;;16.30;46.80;;;;;;6217972;23;19908;-90
2022/06/23 03:10:25;;;;;;;;;;;16.30;46.60;;;;;;6216753;23;20037;-90
2022/06/23 03:12:56;;;;;;;;;;;16.30;46.50;;;;;;6216718;23;19912;-92
2022/06/23 03:15:25;;;;;;;;;;;16.30;46.50;;;;;;6216343;23;19974;-92
2022/06/23 03:18:02;;;;;;;;;;;16.30;46.40;;;;;;6215841;23;20313;-92
2022/06/23 03:20:47;;;;;;;;;;;16.30;46.40;;;;;;6217191;23;19923;-91
2022/06/23 03:23:18;;;;;;;;;;;16.30;46.50;;;;;;6216273;23;19958;-91
2022/06/23 03:25:55;;;;;;;;;;;16.50;46.90;;;;;;6218557;23;19931;-91
2022/06/23 03:28:20;;;;;;;;;;;16.60;47.30;;;;;;6216242;23;19911;-91
2022/06/23 03:31:04;;;;;;;;;;;16.80;47.80;;;;;;6216817;23;19920;-92
2022/06/23 03:33:40;;;;;;;;;;;17.00;48.20;;;;;;6217015;23;20480;-92
2022/06/23 03:36:25;;;;;;;;;;;17.20;48.40;;;;;;6217809;23;19985;-91
2022/06/23 03:41:42;;;;;;;;;;;17.70;48.70;;;;;;6218356;23;20363;-92
2022/06/23 03:44:07;;;;;;;;;;;18.00;48.80;;;;;;6217481;23;19944;-92
2022/06/23 03:46:36;;;;;;;;;;;18.40;48.90;;;;;;6217823;23;19912;-92
2022/06/23 03:49:01;;;;;;;;;;;18.70;48.90;;;;;;6217520;23;19908;-92
2022/06/23 03:51:27;;;;;;;;;;;19.00;48.80;;;;;;6217044;23;20232;-92
2022/06/23 03:54:00;;;;;;;;;;;19.30;48.60;;;;;;6217317;23;20293;-92
2022/06/23 03:56:28;;;;;;;;;;;19.70;48.30;;;;;;6219199;23;20427;-91
2022/06/23 03:59:05;;;;;;;;;;;20.00;47.90;;;;;;6218477;23;19962;-92
2022/06/23 04:01:51;;;;;;;;;;;20.30;47.70;;;;;;6219130;23;19916;-92
2022/06/23 04:04:39;;;;;;;;;;;20.70;47.60;;;;;;6220594;23;19932;-92
2022/06/23 04:07:24;;;;;;;;;;;21.00;47.20;;;;;;6217679;23;19931;-92
2022/06/23 04:09:50;;;;;;;;;;;21.40;46.90;;;;;;6227264;23;19916;-92
2022/06/23 04:12:16;;;;;;;;;;;21.80;46.40;;;;;;6227270;23;19916;-92
2022/06/23 04:14:41;;;;;;;;;;;22.20;46.00;;;;;;6220006;23;19918;-93
2022/06/23 04:17:10;;;;;;;;;;;22.50;45.70;;;;;;6219305;23;19919;-92
2022/06/23 04:19:36;;;;;;;;;;;22.90;45.40;;;;;;6219612;23;19958;-92
2022/06/23 04:22:10;;;;;;;;;;;23.30;44.90;;;;;;6218823;23;20305;-93
2022/06/23 04:24:42;;;;;;;;;;;23.70;44.70;;;;;;6218422;23;19908;-93
2022/06/23 04:27:13;;;;;;;;;;;24.20;44.30;;;;;;6220096;23;19912;-94
2022/06/23 04:29:38;;;;;;;;;;;24.60;43.10;;;;;;6218249;23;19915;-93
2022/06/23 04:32:09;;;;;;;;;;;25.00;42.50;;;;;;6218241;23;19916;-93
2022/06/23 04:34:40;;;;;;;;;;;25.50;41.90;;;;;;6220413;23;19912;-93
2022/06/23 04:37:11;;;;;;;;;;;25.90;41.30;;;;;;6219010;23;19897;-93
2022/06/23 04:39:42;;;;;;;;;;;26.40;41.10;;;;;;6220090;22;19915;-93
2022/06/23 04:42:12;;;;;;;;;;;26.80;40.40;;;;;;6217475;23;19912;-93
2022/06/23 04:44:43;;;;;;;;;;;27.20;39.60;;;;;;6216308;23;19912;-93
2022/06/23 04:47:19;;;;;;;;;;;27.70;38.80;;;;;;6215750;23;20323;-92
2022/06/23 04:49:48;;;;;;;;;;;28.10;37.90;;;;;;6215612;23;19908;-92
2022/06/23 04:52:17;;;;;;;;;;;28.50;37.40;;;;;;6217322;23;20355;-94
2022/06/23 04:54:56;;;;;;;;;;;;;;;;;;;;;
2022/06/23 04:57:41;;;;;;;;;;;;;;;;;;;;;
2022/06/23 05:00:28;;;;;;;;;;;29.30;34.80;;;;;;6217784;23;19995;-93
2022/06/23 05:02:55;;;;;;;;;;;29.70;34.30;;;;;;6215028;23;19959;-93
2022/06/23 05:05:23;;;;;;;;;;;30.10;33.60;;;;;;6216958;23;19924;-90
2022/06/23 05:08:03;;;;;;;;;;;30.40;32.90;;;;;;6221179;23;19943;-91
2022/06/23 05:10:37;;;;;;;;;;;30.80;32.40;;;;;;6217507;23;19981;-90
2022/06/23 05:13:02;;;;;;;;;;;31.20;31.90;;;;;;6218073;23;19911;-90
2022/06/23 05:15:36;;;;;;;;;;;31.40;31.50;;;;;;6217899;23;19947;-91
2022/06/23 05:18:09;;;;;;;;;;;31.80;31.20;;;;;;6218613;23;19910;-90
2022/06/23 05:20:44;;;;;;;;;;;32.20;30.60;;;;;;6217813;23;20236;-92
2022/06/23 05:23:15;;;;;;;;;;;32.70;30.00;;;;;;6219541;23;20332;-92
2022/06/23 05:25:46;;;;;;;;;;;33.10;29.70;;;;;;6219445;23;19959;-91
2022/06/23 05:28:21;;;;;;;;;;;33.50;29.10;;;;;;6217692;23;20317;-91
2022/06/23 05:30:48;;;;;;;;;;;33.80;28.70;;;;;;6215404;23;19962;-91
2022/06/23 05:33:19;;;;;;;;;;;34.20;28.20;;;;;;6215874;23;19908;-92
2022/06/23 05:35:52;;;;;;;;;;;34.50;27.30;;;;;;6215596;23;19907;-92
2022/06/23 05:38:42;;;;;;;;;;;34.70;27.00;;;;;;6217317;23;20333;-91
2022/06/23 05:41:14;;;;;;;;;;;34.90;26.80;;;;;;6217059;23;19907;-91
2022/06/23 05:43:40;;;;;;;;;;;35.30;26.50;;;;;;6216188;23;19919;-91
2022/06/23 05:46:16;;;;;;;;;;;35.70;25.80;;;;;;6217879;23;19908;-91
2022/06/23 05:48:43;;;;;;;;;;;36.00;25.50;;;;;;6215567;23;19919;-91
2022/06/23 05:51:09;;;;;;;;;;;36.30;25.20;;;;;;6215666;23;19912;-92
2022/06/23 05:53:54;;;;;;;;;;;36.60;24.60;;;;;;6215498;23;19935;-92
2022/06/23 05:56:24;;;;;;;;;;;36.80;23.70;;;;;;6216550;23;19954;-92
2022/06/23 05:58:55;;;;;;;;;;;37.10;23.70;;;;;;6217872;23;19991;-91
2022/06/23 06:01:24;;;;;;;;;;;37.40;23.50;;;;;;6215821;23;19956;-91
2022/06/23 06:04:02;;;;;;;;;;;37.70;23.20;;;;;;6216689;23;19923;-92
2022/06/23 06:06:28;;;;;;;;;;;37.90;22.90;;;;;;6216138;23;19908;-91
2022/06/23 06:11:45;;;;;;;;;;;38.60;22.70;;;;;;6218063;23;19919;-92
2022/06/23 06:14:29;;;;;;;;;;;38.90;22.00;;;;;;6216886;23;19916;-92
2022/06/23 06:16:57;;;;;;;;;;;39.20;21.70;;;;;;6216195;23;19904;-93
2022/06/23 06:19:23;;;;;;;;;;;39.50;20.90;;;;;;6215292;23;20354;-91
2022/06/23 06:21:52;;;;;;;;;;;39.60;20.60;;;;;;6215294;23;20284;-92
2022/06/23 06:24:23;;;;;;;;;;;39.50;20.00;;;;;;6218506;22;19912;-92
2022/06/23 06:26:51;;;;;;;;;;;39.50;20.00;;;;;;6190955;23;19912;-92
2022/06/23 06:29:19;;;;;;;;;;;39.70;19.80;;;;;;6216496;23;19915;-91
2022/06/23 06:31:51;;;;;;;;;;;39.80;19.70;;;;;;6218160;23;19911;-92
2022/06/23 06:34:19;;;;;;;;;;;39.90;18.80;;;;;;6215856;23;20515;-92
2022/06/23 06:36:47;;;;;;;;;;;39.90;18.60;;;;;;6217137;23;20379;-92
2022/06/23 06:39:12;;;;;;;;;;;39.80;18.30;;;;;;6216752;23;19920;-96
2022/06/23 06:41:43;;;;;;;;;;;39.60;18.50;;;;;;6215273;23;19908;-92
2022/06/23 06:44:09;;;;;;;;;;;39.40;18.60;;;;;;6216761;23;20245;-92
2022/06/23 06:46:37;;;;;;;;;;;39.50;18.80;;;;;;6214512;23;20260;-92
2022/06/23 06:49:02;;;;;;;;;;;39.50;18.80;;;;;;6216660;23;19912;-92
2022/06/23 06:51:30;;;;;;;;;;;39.30;18.70;;;;;;6216280;23;19916;-92
2022/06/23 06:54:01;;;;;;;;;;;39.20;18.70;;;;;;6212545;23;19916;-92
2022/06/23 06:56:36;;;;;;;;;;;39.00;18.60;;;;;;6213490;23;19931;-92
2022/06/23 06:59:05;;;;;;;;;;;39.00;19.00;;;;;;6214159;23;19919;-91
2022/06/23 07:01:33;;;;;;;;;;;38.90;19.10;;;;;;6215639;23;19908;-91
2022/06/23 07:03:59;;;;;;;;;;;39.00;19.10;;;;;;6214588;23;20277;-93
2022/06/23 07:06:24;;;;;;;;;;;39.20;19.10;;;;;;6218389;22;19934;-92
2022/06/23 07:08:55;;;;;;;;;;;39.30;19.20;;;;;;6215175;23;19974;-92
2022/06/23 07:11:20;;;;;;;;;;;39.50;19.10;;;;;;6218543;23;19958;-93
2022/06/23 07:13:59;;;;;;;;;;;39.80;19.20;;;;;;6219073;23;19920;-93
2022/06/23 07:16:31;;;;;;;;;;;40.20;19.20;;;;;;6220976;23;19912;-93
2022/06/23 07:18:56;;;;;;;;;;;40.60;18.90;;;;;;6219836;23;19934;-92
2022/06/23 07:21:47;;;;;;;;;;;40.90;18.70;;;;;;6218026;23;19912;-92
2022/06/23 07:24:24;;;;;;;;;;;41.20;18.20;;;;;;6146504;23;19967;-93
2022/06/23 07:26:54;;;;;;;;;;;41.40;17.30;;;;;;6218857;23;19926;-93
2022/06/23 07:29:19;;;;;;;;;;;41.30;17.40;;;;;;6216537;23;20000;-93
2022/06/23 07:32:03;;;;;;;;;;;41.40;17.60;;;;;;6217843;23;19915;-91
2022/06/23 07:34:32;;;;;;;;;;;41.60;17.60;;;;;;6217788;23;19916;-92
2022/06/23 07:37:01;;;;;;;;;;;41.80;17.50;;;;;;6217344;23;19904;-92
2022/06/23 07:39:34;;;;;;;;;;;42.20;17.40;;;;;;6216719;23;19916;-93
2022/06/23 07:41:59;;;;;;;;;;;42.50;17.00;;;;;;6217054;23;19904;-92
2022/06/23 07:44:28;;;;;;;;;;;42.60;16.80;;;;;;6216435;23;19939;-93
2022/06/23 07:46:54;;;;;;;;;;;42.70;16.70;;;;;;6215378;23;19974;-93
2022/06/23 07:49:19;;;;;;;;;;;43.00;16.70;;;;;;6214666;23;19912;-94
2022/06/23 07:51:45;;;;;;;;;;;43.20;16.40;;;;;;6217978;23;19923;-93
2022/06/23 07:54:15;;;;;;;;;;;43.20;16.40;;;;;;6216631;23;20018;-94
2022/06/23 07:56:40;;;;;;;;;;;43.30;16.30;;;;;;6212857;23;19910;-92
2022/06/23 07:59:11;;;;;;;;;;;43.30;16.20;;;;;;6214860;23;19951;-93
2022/06/23 08:01:39;;;;;;;;;;;43.50;16.00;;;;;;6217314;23;19915;-94
2022/06/23 08:04:11;;;;;;;;;;;43.60;16.10;;;;;;6215757;23;19962;-91
2022/06/23 08:06:36;;;;;;;;;;;43.70;16.10;;;;;;6214251;23;19939;-92
2022/06/23 08:09:22;;;;;;;;;;;43.90;16.10;;;;;;6213738;23;19912;-93
2022/06/23 08:14:37;;;;;;;;;;;44.30;15.70;;;;;;6216726;23;19938;-91
2022/06/23 08:17:06;;;;;;;;;;;44.30;15.60;;;;;;6216913;23;19959;-93
2022/06/23 08:19:34;;;;;;;;;;;44.40;15.70;;;;;;6214324;23;19912;-93
2022/06/23 08:22:00;;;;;;;;;;;44.70;15.80;;;;;;6216024;23;19904;-92
2022/06/23 08:24:26;;;;;;;;;;;45.00;15.60;;;;;;6215425;23;20229;-91
2022/06/23 08:26:53;;;;;;;;;;;45.10;15.30;;;;;;6216163;23;20276;-94
2022/06/23 08:29:22;;;;;;;;;;;45.10;15.20;;;;;;6213791;23;20325;-92
2022/06/23 08:31:50;;;;;;;;;;;45.30;15.40;;;;;;6214893;23;19916;-94
2022/06/23 08:34:34;;;;;;;;;;;45.30;15.00;;;;;;6217689;23;19935;-91
2022/06/23 08:37:03;;;;;;;;;;;45.30;15.00;;;;;;6216068;23;19911;-93
2022/06/23 08:39:50;;;;;;;;;;;45.40;15.10;;;;;;6216013;23;19912;-93
2022/06/23 08:42:21;;;;;;;;;;;45.70;15.10;;;;;;6216941;23;19930;-94
2022/06/23 08:44:46;;;;;;;;;;;45.70;15.00;;;;;;6216799;23;19908;-92
2022/06/23 08:47:19;;;;;;;;;;;45.80;15.10;;;;;;6213292;23;19931;-93
2022/06/23 08:49:54;;;;;;;;;;;45.90;15.00;;;;;;6215133;23;19915;-93
2022/06/23 08:52:23;;;;;;;;;;;46.00;14.80;;;;;;6216829;23;19950;-91
2022/06/23 08:54:58;;;;;;;;;;;46.20;14.90;;;;;;6215890;23;20071;-92
2022/06/23 08:57:36;;;;;;;;;;;46.40;14.90;;;;;;6216477;23;19908;-90
2022/06/23 09:00:09;;;;;;;;;;;46.40;14.70;;;;;;6215864;23;20511;-92
2022/06/23 09:02:37;;;;;;;;;;;46.40;14.80;;;;;;6216907;23;20567;-92
2022/06/23 09:05:07;;;;;;;;;;;46.50;14.60;;;;;;6215576;23;19912;-91
2022/06/23 09:07:42;;;;;;;;;;;46.50;14.50;;;;;;6214081;23;20393;-92
2022/06/23 09:10:27;;;;;;;;;;;46.40;14.50;;;;;;6214238;23;19912;-94
2022/06/23 09:13:11;;;;;;;;;;;46.30;14.50;;;;;;6214946;23;20339;-92
2022/06/23 09:15:55;;;;;;;;;;;46.20;14.70;;;;;;6216358;23;20238;-91
2022/06/23 09:18:26;;;;;;;;;;;46.20;14.60;;;;;;6216383;23;20245;-91
2022/06/23 09:20:58;;;;;;;;;;;46.10;14.60;;;;;;6218196;23;19912;-91
2022/06/23 09:23:45;;;;;;;;;;;45.90;14.50;;;;;;6215926;23;20011;-91
2022/06/23 09:26:23;;;;;;;;;;;45.90;14.60;;;;;;6217494;23;19958;-93
2022/06/23 09:28:53;;;;;;;;;;;45.90;14.60;;;;;;6216068;23;19935;-92
2022/06/23 09:31:21;;;;;;;;;;;45.80;14.60;;;;;;6216948;23;19989;-93
2022/06/23 09:33:56;;;;;;;;;;;45.60;14.40;;;;;;6218433;23;19987;-92
2022/06/23 09:36:40;;;;;;;;;;;45.50;14.40;;;;;;6215344;23;19903;-91
2022/06/23 09:39:06;;;;;;;;;;;45.70;14.30;;;;;;6214537;23;19916;-93
2022/06/23 09:41:31;;;;;;;;;;;45.80;14.20;;;;;;6220046;23;20497;-94
2022/06/23 09:43:59;;;;;;;;;;;45.80;13.90;;;;;;6219751;23;20293;-95
2022/06/23 09:46:42;;;;;;;;;;;45.80;13.70;;;;;;6217106;23;20034;-91
2022/06/23 09:49:26;;;;;;;;;;;45.70;13.50;;;;;;6213775;23;19923;-91
2022/06/23 09:51:51;;;;;;;;;;;45.50;13.40;;;;;;6215182;23;20332;-91
2022/06/23 09:54:29;;;;;;;;;;;45.40;13.20;;;;;;6218243;23;19912;-95
2022/06/23 09:57:00;;;;;;;;;;;45.60;13.30;;;;;;6216214;23;19983;-91
2022/06/23 09:59:26;;;;;;;;;;;45.60;13.10;;;;;;6216879;23;19962;-92
2022/06/23 10:01:59;;;;;;;;;;;45.60;13.20;;;;;;6214809;23;19912;-91
2022/06/23 10:04:57;;;;;;;;;;;45.50;12.60;;;;;;6215246;23;19938;-91
2022/06/23 10:07:41;;;;;;;;;;;45.50;12.00;;;;;;6132329;23;19916;-90
2022/06/23 10:10:13;;;;;;;;;;;45.10;12.40;;;;;;6215717;23;19958;-91
2022/06/23 10:12:44;;;;;;;;;;;45.10;12.40;;;;;;6217538;23;19965;-92
2022/06/23 10:15:24;;;;;;;;;;;45.10;12.40;;;;;;6216158;23;19912;-92
2022/06/23 10:17:58;;;;;;;;;;;45.10;12.40;;;;;;6215211;23;19947;-91
2022/06/23 10:20:34;;;;;;;;;;;45.20;12.40;;;;;;6214632;23;19983;-93
2022/06/23 10:23:03;;;;;;;;;;;45.50;12.60;;;;;;6213343;23;19923;-91
2022/06/23 10:25:31;;;;;;;;;;;45.70;12.40;;;;;;6213813;23;19916;-89
2022/06/23 10:28:04;;;;;;;;;;;45.80;12.20;;;;;;6210269;23;19915;-91
2022/06/23 10:30:30;;;;;;;;;;;45.80;11.90;;;;;;6212954;23;19998;-91
2022/06/23 10:33:05;;;;;;;;;;;45.90;11.90;;;;;;6210821;23;19943;-91
2022/06/23 10:35:49;;;;;;;;;;;46.00;12.00;;;;;;6216955;23;19966;-91
2022/06/23 10:38:15;;;;;;;;;;;46.00;11.90;;;;;;6214525;23;19958;-91
2022/06/23 10:40:59;;;;;;;;;;;46.30;12.00;;;;;;6212542;23;20303;-94
2022/06/23 10:43:31;;;;;;;;;;;46.50;11.70;;;;;;6213700;23;20413;-91
2022/06/23 10:46:00;;;;;;;;;;;46.50;11.30;;;;;;6216710;23;19982;-92
2022/06/23 10:48:35;;;;;;;;;;;46.50;11.30;;;;;;6216414;23;19999;-91
2022/06/23 10:51:06;;;;;;;;;;;46.50;11.20;;;;;;6217589;23;19914;-91
2022/06/23 10:53:32;;;;;;;;;;;46.50;11.30;;;;;;6216599;23;19916;-91
2022/06/23 10:56:20;;;;;;;;;;;46.70;11.40;;;;;;6214417;23;19921;-91
2022/06/23 10:59:24;;;;;;;;;;;47.00;11.50;;;;;;6144780;23;19916;-91
2022/06/23 11:02:11;;;;;;;;;;;46.80;11.10;;;;;;6070304;23;19909;-92
2022/06/23 11:04:48;;;;;;;;;;;46.70;11.20;;;;;;6092805;23;20414;-91
2022/06/23 11:07:21;;;;;;;;;;;46.50;11.20;;;;;;6176542;23;19923;-90
2022/06/23 11:09:56;;;;;;;;;;;46.30;11.20;;;;;;6212620;23;20363;-91
2022/06/23 11:12:40;;;;;;;;;;;46.20;11.40;;;;;;6213085;23;20384;-91
2022/06/23 11:15:24;;;;;;;;;;;46.20;11.40;;;;;;6217271;23;19927;-91
2022/06/23 11:17:50;;;;;;;;;;;46.00;11.40;;;;;;6215333;23;19942;-90
2022/06/23 11:20:18;;;;;;;;;;;46.00;11.50;;;;;;6215192;23;20516;-90
2022/06/23 11:22:50;;;;;;;;;;;45.90;11.60;;;;;;6217026;23;20371;-92
2022/06/23 11:25:36;;;;;;;;;;;45.90;11.50;;;;;;6214692;23;19912;-91
2022/06/23 11:28:13;;;;;;;;;;;45.80;11.70;;;;;;6215864;23;19911;-91
2022/06/23 11:31:03;;;;;;;;;;;45.80;11.70;;;;;;6215942;23;19912;-91
2022/06/23 11:33:34;;;;;;;;;;;45.90;11.90;;;;;;6217984;23;19914;-91
2022/06/23 11:36:03;;;;;;;;;;;45.80;11.70;;;;;;6216409;23;19956;-92
2022/06/23 11:38:49;;;;;;;;;;;45.80;12.00;;;;;;6217340;23;19931;-92
2022/06/23 11:41:33;;;;;;;;;;;45.80;12.00;;;;;;6157522;23;19919;-90
2022/06/23 11:44:17;;;;;;;;;;;45.60;12.00;;;;;;6219619;23;19982;-91
2022/06/23 11:47:03;;;;;;;;;;;45.80;12.10;;;;;;6218594;23;20318;-91
2022/06/23 11:49:48;;;;;;;;;;;46.00;12.10;;;;;;6219787;23;20341;-90
2022/06/23 11:52:13;;;;;;;;;;;46.30;11.90;;;;;;6217411;23;19939;-90
2022/06/23 11:54:57;;;;;;;;;;;46.30;11.90;;;;;;6217935;23;19904;-92
2022/06/23 11:57:37;;;;;;;;;;;46.20;11.60;;;;;;6217437;23;19993;-91
2022/06/23 12:00:05;;;;;;;;;;;46.20;11.70;;;;;;6218126;23;20324;-91
2022/06/23 12:02:49;;;;;;;;;;;46.30;11.60;;;;;;6215996;23;19994;-92
2022/06/23 12:05:37;;;;;;;;;;;46.50;11.70;;;;;;6218663;23;20281;-91
2022/06/23 12:08:09;;;;;;;;;;;46.50;11.50;;;;;;6215885;23;20171;-91
2022/06/23 12:10:46;;;;;;;;;;;46.50;11.40;;;;;;6216830;23;19911;-93
2022/06/23 12:13:11;;;;;;;;;;;46.30;11.40;;;;;;6216239;23;19912;-93
2022/06/23 12:15:48;;;;;;;;;;;46.30;11.50;;;;;;6217937;23;19942;-96
2022/06/23 12:18:36;;;;;;;;;;;46.30;11.40;;;;;;6216117;23;19923;-93
2022/06/23 12:21:17;;;;;;;;;;;46.00;11.50;;;;;;6217204;23;19915;-93
2022/06/23 12:23:49;;;;;;;;;;;46.10;11.50;;;;;;6216726;23;19908;-92
2022/06/23 12:26:15;;;;;;;;;;;46.20;11.50;;;;;;6215740;23;19908;-93
2022/06/23 12:28:40;;;;;;;;;;;46.20;11.40;;;;;;6216721;23;19939;-95
2022/06/23 12:31:17;;;;;;;;;;;46.00;11.30;;;;;;6217091;23;20018;-92
2022/06/23 12:34:06;;;;;;;;;;;45.80;11.30;;;;;;6215641;23;19912;-89
2022/06/23 12:36:35;;;;;;;;;;;45.70;11.50;;;;;;6217132;23;20336;-89
2022/06/23 12:39:17;;;;;;;;;;;45.50;11.60;;;;;;6216130;23;19915;-92
2022/06/23 12:41:46;;;;;;;;;;;45.40;11.60;;;;;;6217410;23;19908;-90
2022/06/23 12:44:19;;;;;;;;;;;45.50;11.60;;;;;;6216240;23;19908;-91
2022/06/23 12:46:51;;;;;;;;;;;45.30;11.50;;;;;;6217053;23;19908;-91
2022/06/23 12:49:27;;;;;;;;;;;45.30;11.70;;;;;;6219039;23;20241;-92
2022/06/23 12:52:14;;;;;;;;;;;45.30;11.50;;;;;;6215640;23;19923;-90
2022/06/23 12:54:57;;;;;;;;;;;45.30;11.50;;;;;;6217657;23;19911;-93
2022/06/23 12:57:42;;;;;;;;;;;45.00;11.20;;;;;;6216078;23;19996;-91
2022/06/23 13:00:08;;;;;;;;;;;44.70;11.50;;;;;;6216837;23;19904;-92
2022/06/23 13:02:35;;;;;;;;;;;44.70;11.40;;;;;;6218209;23;20115;-91
2022/06/23 13:05:22;;;;;;;;;;;44.80;11.40;;;;;;6216840;23;19975;-92
2022/06/23 13:08:10;;;;;;;;;;;44.80;11.60;;;;;;6218094;23;19987;-91
2022/06/23 13:10:40;;;;;;;;;;;44.70;11.80;;;;;;6217094;23;19908;-91
2022/06/23 13:13:21;;;;;;;;;;;44.50;12.10;;;;;;6215571;23;19919;-89
2022/06/23 13:15:50;;;;;;;;;;;44.50;12.20;;;;;;6215067;23;19908;-89
2022/06/23 13:18:19;;;;;;;;;;;44.70;12.20;;;;;;6216281;23;20259;-90
2022/06/23 13:20:45;;;;;;;;;;;44.70;12.30;;;;;;6215429;23;19911;-88
2022/06/23 13:23:13;;;;;;;;;;;44.70;12.30;;;;;;6214565;23;19908;-89
2022/06/23 13:26:10;;;;;;;;;;;44.70;12.30;;;;;;6217136;23;19930;-89
2022/06/23 13:28:38;;;;;;;;;;;44.80;12.20;;;;;;6214042;23;19954;-89
2022/06/23 13:31:12;;;;;;;;;;;44.80;12.10;;;;;;6217495;23;19953;-91
2022/06/23 13:33:46;;;;;;;;;;;44.90;12.30;;;;;;6214199;23;19912;-91
2022/06/23 13:36:20;;;;;;;;;;;44.90;12.30;;;;;;6213568;23;19916;-89
2022/06/23 13:38:50;;;;;;;;;;;44.70;12.10;;;;;;6215436;23;19904;-91
2022/06/23 13:41:18;;;;;;;;;;;44.40;12.20;;;;;;6217504;23;19927;-91
2022/06/23 13:43:49;;;;;;;;;;;44.20;12.30;;;;;;6215752;23;20462;-92
2022/06/23 13:46:18;;;;;;;;;;;44.00;12.50;;;;;;6216980;23;19916;-92
2022/06/23 13:49:00;;;;;;;;;;;44.00;12.60;;;;;;6214005;23;19959;-90
2022/06/23 13:51:29;;;;;;;;;;;44.00;12.60;;;;;;6215328;23;19919;-93
2022/06/23 13:53:59;;;;;;;;;;;44.00;12.60;;;;;;6216400;23;19950;-91
2022/06/23 13:56:45;;;;;;;;;;;43.80;12.70;;;;;;6216713;23;19912;-91
2022/06/23 13:59:14;;;;;;;;;;;43.70;12.60;;;;;;6216031;23;20233;-90
2022/06/23 14:01:48;;;;;;;;;;;43.50;12.50;;;;;;6214787;23;19914;-90
2022/06/23 14:04:27;;;;;;;;;;;43.50;12.30;;;;;;6214932;23;19919;-92
2022/06/23 14:07:05;;;;;;;;;;;43.40;12.40;;;;;;6219073;23;19924;-93
2022/06/23 14:09:34;;;;;;;;;;;43.20;12.30;;;;;;6217266;23;19923;-94
2022/06/23 14:12:03;;;;;;;;;;;43.00;12.70;;;;;;6217619;23;19915;-94
2022/06/23 14:14:42;;;;;;;;;;;42.90;12.80;;;;;;6216044;23;20473;-92
2022/06/23 14:17:21;;;;;;;;;;;42.90;12.90;;;;;;6214337;23;19907;-91
2022/06/23 14:19:50;;;;;;;;;;;43.00;13.00;;;;;;6215433;23;19919;-91
2022/06/23 14:22:19;;;;;;;;;;;43.00;13.00;;;;;;6214669;23;19954;-92
2022/06/23 14:25:18;;;;;;;;;;;43.00;13.20;;;;;;6217490;23;20348;-92
2022/06/23 14:27:53;;;;;;;;;;;42.90;12.90;;;;;;6145586;23;19927;-90
2022/06/23 14:30:26;;;;;;;;;;;43.00;13.00;;;;;;6216278;23;19991;-91
2022/06/23 14:33:10;;;;;;;;;;;42.80;13.10;;;;;;6214292;23;19942;-91
2022/06/23 14:35:38;;;;;;;;;;;42.40;13.10;;;;;;6217741;23;19931;-92
2022/06/23 14:38:22;;;;;;;;;;;42.10;13.40;;;;;;6216761;23;19915;-92
2022/06/23 14:40:51;;;;;;;;;;;41.70;13.70;;;;;;6216204;23;19914;-92
2022/06/23 14:43:37;;;;;;;;;;;41.20;13.90;;;;;;6215182;23;19907;-92
2022/06/23 14:46:10;;;;;;;;;;;40.50;14.30;;;;;;6152587;23;19999;-93
2022/06/23 14:48:54;;;;;;;;;;;39.80;14.70;;;;;;6214370;23;19973;-93
2022/06/23 14:51:32;;;;;;;;;;;39.30;15.10;;;;;;6213909;23;20360;-91
2022/06/23 14:54:06;;;;;;;;;;;38.70;15.40;;;;;;6215694;23;19991;-92
2022/06/23 14:56:44;;;;;;;;;;;38.30;15.70;;;;;;6191357;23;19915;-91
2022/06/23 14:59:19;;;;;;;;;;;38.00;16.00;;;;;;6215081;23;19986;-93
2022/06/23 15:01:44;;;;;;;;;;;37.60;16.10;;;;;;6217517;23;19920;-92
2022/06/23 15:04:25;;;;;;;;;;;37.30;16.20;;;;;;6215759;23;19908;-93
2022/06/23 15:06:57;;;;;;;;;;;37.20;16.50;;;;;;6217842;23;19912;-93